createdAt,value
2022-10-07T00:04:21.934Z,9.2
2022-10-07T00:10:32.628Z,9.5
2022-10-07T00:16:43.348Z,9.5
2022-10-07T00:22:53.950Z,9.4
2022-10-07T00:29:04.648Z,9.3
2022-10-07T00:35:15.237Z,9.1
2022-10-07T00:41:17.701Z,9
2022-10-07T00:47:28.426Z,9.1
2022-10-07T00:53:39.026Z,9.2
2022-10-07T00:59:49.692Z,9
2022-10-07T01:06:00.359Z,9
2022-10-07T01:11:13.269Z,9
2022-10-07T01:17:23.919Z,9.1
2022-10-07T01:23:34.624Z,9
2022-10-07T01:29:45.295Z,9.2
2022-10-07T01:35:55.919Z,9
2022-10-07T01:41:58.437Z,9.3
2022-10-07T01:48:09.076Z,9.1
2022-10-07T01:54:19.761Z,9
2022-10-07T02:00:30.428Z,8.9
2022-10-07T02:06:41.049Z,8.8
2022-10-07T02:12:51.743Z,8.7
2022-10-07T02:19:02.420Z,8.6
2022-10-07T02:25:13.071Z,8.5
2022-10-07T02:31:23.797Z,8.6
2022-10-07T02:37:34.454Z,8.6
2022-10-07T02:43:36.909Z,8.2
2022-10-07T02:49:47.599Z,8.2
2022-10-07T02:55:58.244Z,8.4
2022-10-07T03:02:08.956Z,8.3
2022-10-07T03:07:13.582Z,8.3
2022-10-07T03:13:24.281Z,8.2
2022-10-07T03:19:34.945Z,7.9
2022-10-07T03:25:45.595Z,8
2022-10-07T03:31:56.282Z,8
2022-10-07T03:38:07.085Z,8.2
2022-10-07T03:43:11.663Z,8.1
2022-10-07T03:49:22.359Z,8
2022-10-07T03:55:32.984Z,7.9
2022-10-07T04:01:43.707Z,8
2022-10-07T04:07:54.337Z,7.8
2022-10-07T04:14:04.966Z,7.9
2022-10-07T04:20:15.640Z,8
2022-10-07T04:26:26.361Z,8.2
2022-10-07T04:32:36.953Z,7.9
2022-10-07T04:38:47.629Z,8.1
2022-10-07T04:44:50.175Z,8.2
2022-10-07T04:51:00.932Z,8.1
2022-10-07T04:57:11.463Z,8.1
2022-10-07T05:03:22.147Z,8.1
2022-10-07T05:09:32.775Z,7.7
2022-10-07T05:15:43.425Z,7.7
2022-10-07T05:21:54.142Z,7.9
2022-10-07T05:28:04.843Z,7.9
2022-10-07T05:34:15.457Z,7.9
2022-10-07T05:40:26.148Z,8.2
2022-10-07T05:46:28.582Z,8
2022-10-07T05:52:39.247Z,8.1
2022-10-07T05:58:49.932Z,8.2
2022-10-07T06:05:00.575Z,8.2
2022-10-07T06:10:13.474Z,8.2
2022-10-07T06:16:24.248Z,8.5
2022-10-07T06:22:34.827Z,8.3
2022-10-07T06:28:45.554Z,8.4
2022-10-07T06:34:56.199Z,8.4
2022-10-07T06:41:06.832Z,8.5
2022-10-07T06:47:11.895Z,8.4
2022-10-07T06:53:19.990Z,8.1
2022-10-07T06:59:30.631Z,8.4
2022-10-07T07:05:44.489Z,9
2022-10-07T07:12:00.159Z,9.3
2022-10-07T07:18:10.851Z,10
2022-10-07T07:24:21.461Z,11.3
2022-10-07T07:30:32.275Z,12
2022-10-07T07:36:42.795Z,11.5
2022-10-07T07:42:53.486Z,12.5
2022-10-07T07:48:56.007Z,13
2022-10-07T07:55:06.615Z,13.2
2022-10-07T08:01:17.352Z,12.3
2022-10-07T08:07:27.990Z,13.1
2022-10-07T08:13:38.618Z,12.8
2022-10-07T08:19:49.283Z,12.2
2022-10-07T08:25:59.991Z,12.2
2022-10-07T08:32:10.627Z,12.2
2022-10-07T08:38:21.417Z,11.9
2022-10-07T08:43:34.263Z,11.4
2022-10-07T08:49:36.693Z,11.5
2022-10-07T08:55:47.350Z,11.5
2022-10-07T09:01:58.051Z,11.7
2022-10-07T09:08:08.687Z,11.5
2022-10-07T09:14:19.332Z,11.6
2022-10-07T09:20:30.121Z,11.4
2022-10-07T09:26:40.663Z,11.3
2022-10-07T09:32:51.357Z,11.2
2022-10-07T09:39:02.049Z,11.5
2022-10-07T09:46:18.681Z,11.6
2022-10-07T09:52:29.318Z,11.5
2022-10-07T09:58:39.972Z,11.1
2022-10-07T10:04:50.623Z,11.7
2022-10-07T10:11:01.272Z,11.7
2022-10-07T10:17:11.985Z,11.8
2022-10-07T10:23:22.604Z,11.4
2022-10-07T10:29:33.287Z,11.3
2022-10-07T10:35:44.009Z,9.8
2022-10-07T10:41:54.628Z,10.8
2022-10-07T10:47:57.136Z,10.2
2022-10-07T10:54:07.807Z,10
2022-10-07T11:00:18.627Z,10.2
2022-10-07T11:06:29.114Z,9.9
2022-10-07T11:11:42.064Z,9.8
2022-10-07T11:17:52.694Z,9.4
2022-10-07T11:22:57.404Z,9.4
2022-10-07T11:29:08.154Z,9.5
2022-10-07T11:35:18.747Z,9.6
2022-10-07T11:41:29.429Z,8.7
2022-10-07T11:47:31.991Z,8.4
2022-10-07T11:53:42.552Z,8.6
2022-10-07T11:59:53.231Z,9.3
2022-10-07T12:06:03.941Z,9.2
2022-10-07T12:12:14.567Z,9
2022-10-07T12:18:25.223Z,9.2
2022-10-07T12:24:35.936Z,9.4
2022-10-07T12:30:46.568Z,9.1
2022-10-07T12:36:57.243Z,9.8
2022-10-07T12:43:07.913Z,9.3
2022-10-07T12:49:10.371Z,9.6
2022-10-07T12:55:21.022Z,9.4
2022-10-07T13:01:31.951Z,9.8
2022-10-07T13:07:42.351Z,9.5
2022-10-07T13:13:53.039Z,9.5
2022-10-07T13:20:03.744Z,9.1
2022-10-07T13:26:14.356Z,8.6
2022-10-07T13:32:25.050Z,9.3
2022-10-07T13:38:35.871Z,9.3
2022-10-07T13:43:48.631Z,8.6
2022-10-07T13:49:51.081Z,8.8
2022-10-07T13:56:01.801Z,8.8
2022-10-07T14:02:12.547Z,9.2
2022-10-07T14:08:23.113Z,9.2
2022-10-07T14:14:33.777Z,9.2
2022-10-07T14:20:44.451Z,9.9
2022-10-07T14:26:55.097Z,9.9
2022-10-07T14:33:05.845Z,8.8
2022-10-07T14:39:16.430Z,9.8
2022-10-07T14:45:27.121Z,9.2
2022-10-07T14:51:29.602Z,9
2022-10-07T14:57:40.228Z,8.8
2022-10-07T15:03:50.937Z,9.5
2022-10-07T15:10:01.646Z,9.1
2022-10-07T15:16:12.230Z,9.6
2022-10-07T15:22:22.908Z,9.8
2022-10-07T15:28:41.855Z,10.7
2022-10-07T15:34:52.444Z,11.5
2022-10-07T15:41:03.078Z,11.7
2022-10-07T15:47:05.623Z,11.8
2022-10-07T15:53:16.261Z,12.1
2022-10-07T15:59:26.908Z,11.9
2022-10-07T16:05:37.615Z,12.1
2022-10-07T16:10:50.483Z,12.1
2022-10-07T16:17:01.149Z,12.2
2022-10-07T16:23:11.850Z,11.9
2022-10-07T16:29:22.494Z,11.9
2022-10-07T16:35:33.166Z,11.5
2022-10-07T16:41:43.870Z,11.4
2022-10-07T16:47:46.749Z,11.4
2022-10-07T16:53:56.983Z,11.4
2022-10-07T17:00:07.703Z,11.2
2022-10-07T17:06:18.286Z,11.2
2022-10-07T17:12:28.990Z,11.3
2022-10-07T17:18:39.639Z,11.2
2022-10-07T17:24:50.286Z,11.1
2022-10-07T17:31:01.053Z,10.7
2022-10-07T17:37:11.686Z,10.8
2022-10-07T17:43:22.288Z,10.9
2022-10-07T17:49:24.768Z,10.8
2022-10-07T17:55:35.519Z,10.8
2022-10-07T18:01:46.132Z,10.8
2022-10-07T18:07:56.804Z,10.9
2022-10-07T18:14:07.457Z,10.9
2022-10-07T18:20:18.116Z,10.7
2022-10-07T18:26:28.766Z,10.6
2022-10-07T18:32:39.470Z,10.8
2022-10-07T18:39:06.480Z,10.8
2022-10-07T18:45:17.157Z,10.3
2022-10-07T18:51:19.669Z,10.4
2022-10-07T18:57:30.312Z,10.8
2022-10-07T19:03:40.979Z,10.8
2022-10-07T19:09:51.647Z,11
2022-10-07T19:16:02.347Z,11.2
2022-10-07T19:22:12.950Z,11.3
2022-10-07T19:28:23.735Z,11.7
2022-10-07T19:34:34.304Z,11.8
2022-10-07T19:39:39.034Z,11.9
2022-10-07T19:45:49.792Z,11.9
2022-10-07T19:51:52.173Z,11.9
2022-10-07T19:58:02.839Z,12.2
2022-10-07T20:04:13.533Z,12.8
2022-10-07T20:10:24.168Z,12.9
2022-10-07T20:16:34.986Z,12.9
2022-10-07T20:22:49.300Z,13
2022-10-07T20:28:56.152Z,12.9
2022-10-07T20:35:06.844Z,13
2022-10-07T20:41:17.512Z,13
2022-10-07T20:47:28.154Z,13
2022-10-07T20:53:30.887Z,13
2022-10-07T20:59:41.321Z,13
2022-10-07T21:05:51.969Z,12.9
2022-10-07T21:11:04.887Z,12.7
2022-10-07T21:17:15.627Z,12.6
2022-10-07T21:23:26.214Z,12.6
2022-10-07T21:29:40.759Z,12.6
2022-10-07T21:35:47.623Z,12.6
2022-10-07T21:41:58.210Z,12.5
2022-10-07T21:48:08.899Z,12.3
2022-10-07T21:54:11.370Z,12.3
2022-10-07T22:00:22.051Z,12.3
2022-10-07T22:06:32.675Z,12.2
2022-10-07T22:12:43.551Z,12
2022-10-07T22:18:54.039Z,11.9
2022-10-07T22:25:04.702Z,11.9
2022-10-07T22:31:15.487Z,11.9
2022-10-07T22:37:26.029Z,11.8
2022-10-07T22:43:36.700Z,11.7
2022-10-07T22:49:47.415Z,11.6
2022-10-07T22:55:49.813Z,11.6
2022-10-07T23:02:00.493Z,11.5
2022-10-07T23:08:11.181Z,11.4
2022-10-07T23:14:21.801Z,11.5
2022-10-07T23:20:32.495Z,11.3
2022-10-07T23:26:43.187Z,11.1
2022-10-07T23:32:53.802Z,11.2
2022-10-07T23:39:20.859Z,11.3
2022-10-07T23:45:39.765Z,11.2
2022-10-07T23:51:50.380Z,11.2
2022-10-07T23:58:01.052Z,11.1
